sensor_id;sensor_type;location;lat;lon;timestamp;temperature;humidity
52943;DHT22;38809;53.300;6.614;2023-02-15T00:01:30;1.10;99.90
52943;DHT22;38809;53.300;6.614;2023-02-15T00:03:56;2.80;99.90
52943;DHT22;38809;53.300;6.614;2023-02-15T00:06:22;2.30;99.90
52943;DHT22;38809;53.300;6.614;2023-02-15T00:08:48;1.00;99.90
52943;DHT22;38809;53.300;6.614;2023-02-15T00:11:16;2.70;99.90
52943;DHT22;38809;53.300;6.614;2023-02-15T00:13:42;1.00;99.90
52943;DHT22;38809;53.300;6.614;2023-02-15T00:16:10;1.10;99.90
52943;DHT22;38809;53.300;6.614;2023-02-15T00:18:37;1.20;99.90
52943;DHT22;38809;53.300;6.614;2023-02-15T00:21:06;1.90;99.90
52943;DHT22;38809;53.300;6.614;2023-02-15T00:23:32;2.20;99.90
52943;DHT22;38809;53.300;6.614;2023-02-15T00:26:09;0.80;99.90
52943;DHT22;38809;53.300;6.614;2023-02-15T00:28:35;1.20;99.90
52943;DHT22;38809;53.300;6.614;2023-02-15T00:31:06;1.30;99.90
52943;DHT22;38809;53.300;6.614;2023-02-15T00:33:31;1.50;99.90
52943;DHT22;38809;53.300;6.614;2023-02-15T00:36:01;1.10;99.90
52943;DHT22;38809;53.300;6.614;2023-02-15T00:38:28;2.00;99.90
52943;DHT22;38809;53.300;6.614;2023-02-15T00:40:55;2.80;99.90
52943;DHT22;38809;53.300;6.614;2023-02-15T00:43:21;0.90;99.90
52943;DHT22;38809;53.300;6.614;2023-02-15T00:45:46;1.80;99.90
52943;DHT22;38809;53.300;6.614;2023-02-15T00:48:13;1.80;99.90
52943;DHT22;38809;53.300;6.614;2023-02-15T00:50:39;0.70;99.90
52943;DHT22;38809;53.300;6.614;2023-02-15T00:53:05;2.90;99.90
52943;DHT22;38809;53.300;6.614;2023-02-15T00:55:30;2.60;99.90
52943;DHT22;38809;53.300;6.614;2023-02-15T00:57:56;0.70;99.90
52943;DHT22;38809;53.300;6.614;2023-02-15T01:00:22;0.50;99.90
52943;DHT22;38809;53.300;6.614;2023-02-15T01:02:47;2.40;99.90
52943;DHT22;38809;53.300;6.614;2023-02-15T01:05:13;0.90;99.90
52943;DHT22;38809;53.300;6.614;2023-02-15T01:07:39;2.20;99.90
52943;DHT22;38809;53.300;6.614;2023-02-15T01:10:06;0.50;99.90
52943;DHT22;38809;53.300;6.614;2023-02-15T01:12:32;0.70;99.90
52943;DHT22;38809;53.300;6.614;2023-02-15T01:14:58;1.50;99.90
52943;DHT22;38809;53.300;6.614;2023-02-15T01:17:24;0.90;99.90
52943;DHT22;38809;53.300;6.614;2023-02-15T01:19:49;2.80;99.90
52943;DHT22;38809;53.300;6.614;2023-02-15T01:22:17;2.40;99.90
52943;DHT22;38809;53.300;6.614;2023-02-15T01:24:43;0.90;99.90
52943;DHT22;38809;53.300;6.614;2023-02-15T01:27:09;0.80;99.90
52943;DHT22;38809;53.300;6.614;2023-02-15T01:29:35;1.00;99.90
52943;DHT22;38809;53.300;6.614;2023-02-15T01:32:01;0.90;99.90
52943;DHT22;38809;53.300;6.614;2023-02-15T01:34:26;1.60;99.90
52943;DHT22;38809;53.300;6.614;2023-02-15T01:36:53;1.60;99.90
52943;DHT22;38809;53.300;6.614;2023-02-15T01:39:19;1.00;99.90
52943;DHT22;38809;53.300;6.614;2023-02-15T01:41:45;0.90;99.90
52943;DHT22;38809;53.300;6.614;2023-02-15T01:44:53;1.80;99.90
52943;DHT22;38809;53.300;6.614;2023-02-15T01:52:36;1.70;99.90
52943;DHT22;38809;53.300;6.614;2023-02-15T01:55:03;2.20;99.90
52943;DHT22;38809;53.300;6.614;2023-02-15T01:57:29;0.30;99.90
52943;DHT22;38809;53.300;6.614;2023-02-15T01:59:58;0.30;99.90
52943;DHT22;38809;53.300;6.614;2023-02-15T02:02:27;0.20;99.90
52943;DHT22;38809;53.300;6.614;2023-02-15T02:05:00;2.00;99.90
52943;DHT22;38809;53.300;6.614;2023-02-15T02:07:34;0.30;99.90
52943;DHT22;38809;53.300;6.614;2023-02-15T02:10:05;1.80;99.90
52943;DHT22;38809;53.300;6.614;2023-02-15T02:12:31;0.60;99.90
52943;DHT22;38809;53.300;6.614;2023-02-15T02:14:58;2.30;99.90
52943;DHT22;38809;53.300;6.614;2023-02-15T02:39:45;0.10;99.90
52943;DHT22;38809;53.300;6.614;2023-02-15T02:42:29;1.20;99.90
52943;DHT22;38809;53.300;6.614;2023-02-15T02:45:09;1.10;99.90
52943;DHT22;38809;53.300;6.614;2023-02-15T02:47:40;0.50;99.90
52943;DHT22;38809;53.300;6.614;2023-02-15T02:50:16;0.60;99.90
52943;DHT22;38809;53.300;6.614;2023-02-15T02:55:26;0.80;99.90
52943;DHT22;38809;53.300;6.614;2023-02-15T03:00:26;0.60;99.90
52943;DHT22;38809;53.300;6.614;2023-02-15T03:02:57;2.10;99.90
52943;DHT22;38809;53.300;6.614;2023-02-15T03:05:30;2.40;99.90
52943;DHT22;38809;53.300;6.614;2023-02-15T03:07:58;0.70;99.90
52943;DHT22;38809;53.300;6.614;2023-02-15T03:10:31;2.80;99.90
52943;DHT22;38809;53.300;6.614;2023-02-15T03:12:59;2.60;99.90
52943;DHT22;38809;53.300;6.614;2023-02-15T03:15:38;1.60;99.90
52943;DHT22;38809;53.300;6.614;2023-02-15T03:18:33;0.80;99.90
52943;DHT22;38809;53.300;6.614;2023-02-15T03:21:02;0.80;99.90
52943;DHT22;38809;53.300;6.614;2023-02-15T03:23:30;0.80;99.90
52943;DHT22;38809;53.300;6.614;2023-02-15T03:26:00;0.70;99.90
52943;DHT22;38809;53.300;6.614;2023-02-15T03:28:33;0.80;99.90
52943;DHT22;38809;53.300;6.614;2023-02-15T03:31:04;0.70;99.90
52943;DHT22;38809;53.300;6.614;2023-02-15T03:33:31;0.60;99.90
52943;DHT22;38809;53.300;6.614;2023-02-15T03:36:23;1.30;99.90
52943;DHT22;38809;53.300;6.614;2023-02-15T03:41:27;0.60;99.90
52943;DHT22;38809;53.300;6.614;2023-02-15T03:44:04;0.50;99.90
52943;DHT22;38809;53.300;6.614;2023-02-15T03:46:47;0.60;99.90
52943;DHT22;38809;53.300;6.614;2023-02-15T03:49:26;0.60;99.90
52943;DHT22;38809;53.300;6.614;2023-02-15T03:51:55;2.10;99.90
52943;DHT22;38809;53.300;6.614;2023-02-15T03:54:27;1.50;99.90
52943;DHT22;38809;53.300;6.614;2023-02-15T03:57:24;1.40;99.90
52943;DHT22;38809;53.300;6.614;2023-02-15T04:00:13;1.10;99.90
52943;DHT22;38809;53.300;6.614;2023-02-15T04:03:33;0.60;99.90
52943;DHT22;38809;53.300;6.614;2023-02-15T04:06:03;0.50;99.90
52943;DHT22;38809;53.300;6.614;2023-02-15T04:08:29;0.50;99.90
52943;DHT22;38809;53.300;6.614;2023-02-15T04:11:13;0.80;99.90
52943;DHT22;38809;53.300;6.614;2023-02-15T04:13:39;0.50;99.90
52943;DHT22;38809;53.300;6.614;2023-02-15T04:16:05;0.70;99.90
52943;DHT22;38809;53.300;6.614;2023-02-15T04:18:36;0.60;99.90
52943;DHT22;38809;53.300;6.614;2023-02-15T04:21:22;0.50;99.90
52943;DHT22;38809;53.300;6.614;2023-02-15T04:24:07;1.40;99.90
52943;DHT22;38809;53.300;6.614;2023-02-15T04:26:52;0.50;99.90
52943;DHT22;38809;53.300;6.614;2023-02-15T04:29:19;1.30;99.90
52943;DHT22;38809;53.300;6.614;2023-02-15T04:31:45;0.90;99.90
52943;DHT22;38809;53.300;6.614;2023-02-15T04:34:11;0.40;99.90
52943;DHT22;38809;53.300;6.614;2023-02-15T04:36:38;0.40;99.90
52943;DHT22;38809;53.300;6.614;2023-02-15T04:39:04;1.10;99.90
52943;DHT22;38809;53.300;6.614;2023-02-15T04:41:31;0.50;99.90
52943;DHT22;38809;53.300;6.614;2023-02-15T04:43:56;1.80;99.90
52943;DHT22;38809;53.300;6.614;2023-02-15T04:46:22;1.50;99.90
52943;DHT22;38809;53.300;6.614;2023-02-15T04:48:48;0.70;99.90
52943;DHT22;38809;53.300;6.614;2023-02-15T04:51:14;1.10;99.90
52943;DHT22;38809;53.300;6.614;2023-02-15T04:53:40;0.40;99.90
52943;DHT22;38809;53.300;6.614;2023-02-15T04:56:05;2.50;99.90
52943;DHT22;38809;53.300;6.614;2023-02-15T04:58:31;2.30;99.90
52943;DHT22;38809;53.300;6.614;2023-02-15T05:00:57;1.60;99.90
52943;DHT22;38809;53.300;6.614;2023-02-15T05:03:23;0.60;99.90
52943;DHT22;38809;53.300;6.614;2023-02-15T05:05:50;0.60;99.90
52943;DHT22;38809;53.300;6.614;2023-02-15T05:08:15;0.50;99.90
52943;DHT22;38809;53.300;6.614;2023-02-15T05:10:42;0.90;99.90
52943;DHT22;38809;53.300;6.614;2023-02-15T05:13:07;1.20;99.90
52943;DHT22;38809;53.300;6.614;2023-02-15T05:15:33;0.60;99.90
52943;DHT22;38809;53.300;6.614;2023-02-15T05:17:59;0.80;99.90
52943;DHT22;38809;53.300;6.614;2023-02-15T05:20:25;0.40;99.90
52943;DHT22;38809;53.300;6.614;2023-02-15T05:22:53;0.40;99.90
52943;DHT22;38809;53.300;6.614;2023-02-15T05:25:20;1.00;99.90
52943;DHT22;38809;53.300;6.614;2023-02-15T05:28:04;0.50;99.90
52943;DHT22;38809;53.300;6.614;2023-02-15T05:30:58;2.50;99.90
52943;DHT22;38809;53.300;6.614;2023-02-15T05:33:25;0.60;99.90
52943;DHT22;38809;53.300;6.614;2023-02-15T05:35:50;1.60;99.90
52943;DHT22;38809;53.300;6.614;2023-02-15T05:38:16;1.20;99.90
52943;DHT22;38809;53.300;6.614;2023-02-15T05:40:42;1.70;99.90
52943;DHT22;38809;53.300;6.614;2023-02-15T05:43:07;1.00;99.90
52943;DHT22;38809;53.300;6.614;2023-02-15T05:45:33;0.40;99.90
52943;DHT22;38809;53.300;6.614;2023-02-15T05:47:59;0.30;99.90
52943;DHT22;38809;53.300;6.614;2023-02-15T05:50:25;0.10;99.90
52943;DHT22;38809;53.300;6.614;2023-02-15T05:52:51;0.00;99.90
52943;DHT22;38809;53.300;6.614;2023-02-15T05:55:17;0.10;99.90
52943;DHT22;38809;53.300;6.614;2023-02-15T05:57:43;1.10;99.90
52943;DHT22;38809;53.300;6.614;2023-02-15T06:00:09;1.40;99.90
52943;DHT22;38809;53.300;6.614;2023-02-15T06:02:35;0.20;99.90
52943;DHT22;38809;53.300;6.614;2023-02-15T06:05:01;0.20;99.90
52943;DHT22;38809;53.300;6.614;2023-02-15T06:07:27;1.90;99.90
52943;DHT22;38809;53.300;6.614;2023-02-15T06:09:52;0.00;99.90
52943;DHT22;38809;53.300;6.614;2023-02-15T06:12:18;0.00;99.90
52943;DHT22;38809;53.300;6.614;2023-02-15T06:14:43;0.10;99.90
52943;DHT22;38809;53.300;6.614;2023-02-15T06:17:09;0.10;99.90
52943;DHT22;38809;53.300;6.614;2023-02-15T06:19:35;0.10;99.90
52943;DHT22;38809;53.300;6.614;2023-02-15T06:22:00;1.50;99.90
52943;DHT22;38809;53.300;6.614;2023-02-15T06:24:26;0.00;99.90
52943;DHT22;38809;53.300;6.614;2023-02-15T06:26:52;1.40;99.90
52943;DHT22;38809;53.300;6.614;2023-02-15T06:29:17;0.80;99.90
52943;DHT22;38809;53.300;6.614;2023-02-15T06:31:43;0.20;99.90
52943;DHT22;38809;53.300;6.614;2023-02-15T06:34:09;0.20;99.90
52943;DHT22;38809;53.300;6.614;2023-02-15T06:36:34;0.70;99.90
52943;DHT22;38809;53.300;6.614;2023-02-15T06:39:00;0.40;99.90
52943;DHT22;38809;53.300;6.614;2023-02-15T06:41:27;0.70;99.90
52943;DHT22;38809;53.300;6.614;2023-02-15T06:43:53;-0.10;99.90
52943;DHT22;38809;53.300;6.614;2023-02-15T06:46:18;-0.30;99.90
52943;DHT22;38809;53.300;6.614;2023-02-15T06:48:44;-0.60;99.90
52943;DHT22;38809;53.300;6.614;2023-02-15T06:51:10;-0.50;99.90
52943;DHT22;38809;53.300;6.614;2023-02-15T06:53:36;0.60;99.90
52943;DHT22;38809;53.300;6.614;2023-02-15T06:56:06;-0.10;99.90
52943;DHT22;38809;53.300;6.614;2023-02-15T06:58:38;-0.10;99.90
52943;DHT22;38809;53.300;6.614;2023-02-15T07:01:04;0.10;99.90
52943;DHT22;38809;53.300;6.614;2023-02-15T07:03:31;0.50;99.90
52943;DHT22;38809;53.300;6.614;2023-02-15T07:05:58;-0.10;99.90
52943;DHT22;38809;53.300;6.614;2023-02-15T07:08:25;-0.10;99.90
52943;DHT22;38809;53.300;6.614;2023-02-15T07:10:52;0.00;99.90
52943;DHT22;38809;53.300;6.614;2023-02-15T07:13:18;0.80;99.90
52943;DHT22;38809;53.300;6.614;2023-02-15T07:15:47;1.40;99.90
52943;DHT22;38809;53.300;6.614;2023-02-15T07:18:13;0.80;99.90
52943;DHT22;38809;53.300;6.614;2023-02-15T07:20:39;1.10;99.90
52943;DHT22;38809;53.300;6.614;2023-02-15T07:23:07;0.30;99.90
52943;DHT22;38809;53.300;6.614;2023-02-15T07:25:33;0.20;99.90
52943;DHT22;38809;53.300;6.614;2023-02-15T07:28:00;0.30;99.90
52943;DHT22;38809;53.300;6.614;2023-02-15T07:30:27;0.70;99.90
52943;DHT22;38809;53.300;6.614;2023-02-15T07:32:57;0.40;99.90
52943;DHT22;38809;53.300;6.614;2023-02-15T07:35:52;0.20;99.90
52943;DHT22;38809;53.300;6.614;2023-02-15T07:38:18;0.50;99.90
52943;DHT22;38809;53.300;6.614;2023-02-15T07:40:44;1.40;99.90
52943;DHT22;38809;53.300;6.614;2023-02-15T07:43:10;2.40;99.90
52943;DHT22;38809;53.300;6.614;2023-02-15T07:45:37;0.60;99.90
52943;DHT22;38809;53.300;6.614;2023-02-15T07:48:04;0.60;99.90
52943;DHT22;38809;53.300;6.614;2023-02-15T07:50:30;0.70;99.90
52943;DHT22;38809;53.300;6.614;2023-02-15T07:53:04;0.80;99.90
52943;DHT22;38809;53.300;6.614;2023-02-15T07:55:33;0.90;99.90
52943;DHT22;38809;53.300;6.614;2023-02-15T07:57:59;0.80;99.90
52943;DHT22;38809;53.300;6.614;2023-02-15T08:00:24;1.80;99.90
52943;DHT22;38809;53.300;6.614;2023-02-15T08:02:51;3.00;99.90
52943;DHT22;38809;53.300;6.614;2023-02-15T08:05:38;1.10;99.90
52943;DHT22;38809;53.300;6.614;2023-02-15T08:08:04;1.70;99.90
52943;DHT22;38809;53.300;6.614;2023-02-15T08:10:30;1.10;99.90
52943;DHT22;38809;53.300;6.614;2023-02-15T08:13:14;1.30;99.90
52943;DHT22;38809;53.300;6.614;2023-02-15T08:15:48;1.40;99.90
52943;DHT22;38809;53.300;6.614;2023-02-15T08:18:13;1.80;99.90
52943;DHT22;38809;53.300;6.614;2023-02-15T08:20:39;1.50;99.90
52943;DHT22;38809;53.300;6.614;2023-02-15T08:23:05;1.50;99.90
52943;DHT22;38809;53.300;6.614;2023-02-15T08:25:31;2.70;99.90
52943;DHT22;38809;53.300;6.614;2023-02-15T08:27:56;1.50;99.90
52943;DHT22;38809;53.300;6.614;2023-02-15T08:30:22;1.80;99.90
52943;DHT22;38809;53.300;6.614;2023-02-15T08:32:48;1.20;99.90
52943;DHT22;38809;53.300;6.614;2023-02-15T08:35:13;1.90;99.90
52943;DHT22;38809;53.300;6.614;2023-02-15T08:37:39;2.00;99.90
52943;DHT22;38809;53.300;6.614;2023-02-15T08:40:05;2.10;99.90
52943;DHT22;38809;53.300;6.614;2023-02-15T08:42:33;2.00;99.90
52943;DHT22;38809;53.300;6.614;2023-02-15T08:44:59;3.00;99.90
52943;DHT22;38809;53.300;6.614;2023-02-15T08:47:24;2.40;99.90
52943;DHT22;38809;53.300;6.614;2023-02-15T08:49:50;2.90;99.90
52943;DHT22;38809;53.300;6.614;2023-02-15T08:52:16;3.30;99.90
52943;DHT22;38809;53.300;6.614;2023-02-15T08:54:42;2.40;99.90
52943;DHT22;38809;53.300;6.614;2023-02-15T08:57:08;2.50;99.90
52943;DHT22;38809;53.300;6.614;2023-02-15T08:59:35;3.00;99.90
52943;DHT22;38809;53.300;6.614;2023-02-15T09:02:01;2.90;99.90
52943;DHT22;38809;53.300;6.614;2023-02-15T09:04:28;2.90;99.90
52943;DHT22;38809;53.300;6.614;2023-02-15T09:06:54;3.30;99.90
52943;DHT22;38809;53.300;6.614;2023-02-15T09:09:21;3.50;99.90
52943;DHT22;38809;53.300;6.614;2023-02-15T09:11:49;4.00;99.90
52943;DHT22;38809;53.300;6.614;2023-02-15T09:14:17;2.50;99.90
52943;DHT22;38809;53.300;6.614;2023-02-15T09:16:46;3.70;99.90
52943;DHT22;38809;53.300;6.614;2023-02-15T09:19:14;3.90;99.90
52943;DHT22;38809;53.300;6.614;2023-02-15T09:21:40;3.80;99.90
52943;DHT22;38809;53.300;6.614;2023-02-15T09:24:08;4.00;99.90
52943;DHT22;38809;53.300;6.614;2023-02-15T09:26:37;4.00;99.90
52943;DHT22;38809;53.300;6.614;2023-02-15T09:29:03;4.00;99.90
52943;DHT22;38809;53.300;6.614;2023-02-15T09:31:37;4.10;99.90
52943;DHT22;38809;53.300;6.614;2023-02-15T09:34:03;5.70;99.90
52943;DHT22;38809;53.300;6.614;2023-02-15T09:36:32;4.30;99.90
52943;DHT22;38809;53.300;6.614;2023-02-15T09:39:06;4.40;99.90
52943;DHT22;38809;53.300;6.614;2023-02-15T09:53:02;5.40;99.90
52943;DHT22;38809;53.300;6.614;2023-02-15T09:55:51;5.40;99.90
52943;DHT22;38809;53.300;6.614;2023-02-15T10:17:03;7.20;99.90
52943;DHT22;38809;53.300;6.614;2023-02-15T10:19:40;6.70;99.90
52943;DHT22;38809;53.300;6.614;2023-02-15T10:27:51;7.00;99.90
52943;DHT22;38809;53.300;6.614;2023-02-15T10:33:42;7.10;99.90
52943;DHT22;38809;53.300;6.614;2023-02-15T10:36:26;7.30;99.90
52943;DHT22;38809;53.300;6.614;2023-02-15T10:47:59;7.70;99.90
52943;DHT22;38809;53.300;6.614;2023-02-15T10:50:46;7.70;99.90
52943;DHT22;38809;53.300;6.614;2023-02-15T11:06:39;8.30;99.90
52943;DHT22;38809;53.300;6.614;2023-02-15T11:09:12;8.40;99.90
52943;DHT22;38809;53.300;6.614;2023-02-15T11:11:42;8.40;99.90
52943;DHT22;38809;53.300;6.614;2023-02-15T11:14:19;8.30;99.90
52943;DHT22;38809;53.300;6.614;2023-02-15T11:16:50;8.40;99.90
52943;DHT22;38809;53.300;6.614;2023-02-15T11:19:19;8.40;99.90
52943;DHT22;38809;53.300;6.614;2023-02-15T11:21:50;8.40;99.90
52943;DHT22;38809;53.300;6.614;2023-02-15T11:24:19;8.50;99.90
52943;DHT22;38809;53.300;6.614;2023-02-15T11:27:00;8.60;99.90
52943;DHT22;38809;53.300;6.614;2023-02-15T11:29:36;8.50;99.90
52943;DHT22;38809;53.300;6.614;2023-02-15T11:32:21;8.60;99.90
52943;DHT22;38809;53.300;6.614;2023-02-15T11:34:56;8.60;99.90
52943;DHT22;38809;53.300;6.614;2023-02-15T11:42:46;8.80;99.90
52943;DHT22;38809;53.300;6.614;2023-02-15T11:45:28;8.80;99.90
52943;DHT22;38809;53.300;6.614;2023-02-15T11:47:56;8.90;99.90
52943;DHT22;38809;53.300;6.614;2023-02-15T11:50:30;8.80;99.90
52943;DHT22;38809;53.300;6.614;2023-02-15T11:53:03;8.90;99.90
52943;DHT22;38809;53.300;6.614;2023-02-15T11:55:30;8.90;99.90
52943;DHT22;38809;53.300;6.614;2023-02-15T12:00:42;9.00;99.90
52943;DHT22;38809;53.300;6.614;2023-02-15T12:05:45;9.10;99.90
52943;DHT22;38809;53.300;6.614;2023-02-15T12:08:18;9.60;99.90
52943;DHT22;38809;53.300;6.614;2023-02-15T12:11:00;9.40;99.90
52943;DHT22;38809;53.300;6.614;2023-02-15T12:13:28;9.40;99.90
52943;DHT22;38809;53.300;6.614;2023-02-15T12:15:56;9.50;99.90
52943;DHT22;38809;53.300;6.614;2023-02-15T12:21:12;9.80;99.90
52943;DHT22;38809;53.300;6.614;2023-02-15T12:23:51;9.80;99.90
52943;DHT22;38809;53.300;6.614;2023-02-15T12:26:30;9.90;99.90
52943;DHT22;38809;53.300;6.614;2023-02-15T12:29:06;9.90;99.90
52943;DHT22;38809;53.300;6.614;2023-02-15T12:34:01;10.00;99.90
52943;DHT22;38809;53.300;6.614;2023-02-15T12:36:40;10.00;99.90
52943;DHT22;38809;53.300;6.614;2023-02-15T12:41:56;9.90;99.90
52943;DHT22;38809;53.300;6.614;2023-02-15T12:47:01;10.00;99.90
52943;DHT22;38809;53.300;6.614;2023-02-15T12:49:29;10.10;99.90
52943;DHT22;38809;53.300;6.614;2023-02-15T12:51:57;10.20;99.90
52943;DHT22;38809;53.300;6.614;2023-02-15T12:54:34;10.10;99.90
52943;DHT22;38809;53.300;6.614;2023-02-15T12:57:14;10.20;99.90
52943;DHT22;38809;53.300;6.614;2023-02-15T12:59:48;10.20;99.90
52943;DHT22;38809;53.300;6.614;2023-02-15T13:02:30;10.10;99.90
52943;DHT22;38809;53.300;6.614;2023-02-15T13:05:16;10.10;99.90
52943;DHT22;38809;53.300;6.614;2023-02-15T13:08:02;10.10;99.90
52943;DHT22;38809;53.300;6.614;2023-02-15T13:10:32;10.20;99.90
52943;DHT22;38809;53.300;6.614;2023-02-15T13:12:59;10.10;99.90
52943;DHT22;38809;53.300;6.614;2023-02-15T13:15:40;10.00;99.90
52943;DHT22;38809;53.300;6.614;2023-02-15T13:20:56;10.10;99.90
52943;DHT22;38809;53.300;6.614;2023-02-15T13:23:29;10.00;99.90
52943;DHT22;38809;53.300;6.614;2023-02-15T13:26:03;10.20;99.90
52943;DHT22;38809;53.300;6.614;2023-02-15T13:28:54;10.10;99.90
52943;DHT22;38809;53.300;6.614;2023-02-15T13:31:23;10.00;99.90
52943;DHT22;38809;53.300;6.614;2023-02-15T13:34:12;10.00;99.90
52943;DHT22;38809;53.300;6.614;2023-02-15T13:39:42;10.10;99.90
52943;DHT22;38809;53.300;6.614;2023-02-15T13:42:25;10.10;99.90
52943;DHT22;38809;53.300;6.614;2023-02-15T13:55:51;10.10;99.90
52943;DHT22;38809;53.300;6.614;2023-02-15T14:01:24;10.20;99.90
52943;DHT22;38809;53.300;6.614;2023-02-15T14:06:38;10.10;99.90
52943;DHT22;38809;53.300;6.614;2023-02-15T14:09:23;10.20;99.90
52943;DHT22;38809;53.300;6.614;2023-02-15T14:11:55;10.20;99.90
52943;DHT22;38809;53.300;6.614;2023-02-15T14:17:15;10.30;99.90
52943;DHT22;38809;53.300;6.614;2023-02-15T14:19:54;10.30;99.90
52943;DHT22;38809;53.300;6.614;2023-02-15T14:22:36;10.20;99.90
52943;DHT22;38809;53.300;6.614;2023-02-15T14:25:41;10.20;99.90
52943;DHT22;38809;53.300;6.614;2023-02-15T14:31:11;10.20;99.90
52943;DHT22;38809;53.300;6.614;2023-02-15T14:33:39;10.20;99.90
52943;DHT22;38809;53.300;6.614;2023-02-15T14:36:07;10.30;99.90
52943;DHT22;38809;53.300;6.614;2023-02-15T14:44:15;10.10;99.90
52943;DHT22;38809;53.300;6.614;2023-02-15T14:57:20;10.00;99.90
52943;DHT22;38809;53.300;6.614;2023-02-15T14:59:40;10.00;99.90
52943;DHT22;38809;53.300;6.614;2023-02-15T15:04:41;10.10;99.90
52943;DHT22;38809;53.300;6.614;2023-02-15T15:07:25;10.00;99.90
52943;DHT22;38809;53.300;6.614;2023-02-15T15:10:07;10.00;99.90
52943;DHT22;38809;53.300;6.614;2023-02-15T15:12:57;10.00;99.90
52943;DHT22;38809;53.300;6.614;2023-02-15T15:18:07;9.90;99.90
52943;DHT22;38809;53.300;6.614;2023-02-15T15:20:43;9.80;99.90
52943;DHT22;38809;53.300;6.614;2023-02-15T15:34:06;9.60;99.90
52943;DHT22;38809;53.300;6.614;2023-02-15T15:39:39;9.50;99.90
52943;DHT22;38809;53.300;6.614;2023-02-15T15:47:39;9.30;99.90
52943;DHT22;38809;53.300;6.614;2023-02-15T15:50:18;9.30;99.90
52943;DHT22;38809;53.300;6.614;2023-02-15T15:52:53;9.30;99.90
52943;DHT22;38809;53.300;6.614;2023-02-15T15:55:22;9.10;99.90
52943;DHT22;38809;53.300;6.614;2023-02-15T15:57:55;9.10;99.90
52943;DHT22;38809;53.300;6.614;2023-02-15T16:03:21;9.00;99.90
52943;DHT22;38809;53.300;6.614;2023-02-15T16:05:47;8.90;99.90
52943;DHT22;38809;53.300;6.614;2023-02-15T16:08:30;8.90;99.90
52943;DHT22;38809;53.300;6.614;2023-02-15T16:10:57;8.80;99.90
52943;DHT22;38809;53.300;6.614;2023-02-15T16:13:23;8.70;99.90
52943;DHT22;38809;53.300;6.614;2023-02-15T16:15:54;8.60;99.90
52943;DHT22;38809;53.300;6.614;2023-02-15T16:18:25;8.70;99.90
52943;DHT22;38809;53.300;6.614;2023-02-15T16:20:55;8.50;99.90
52943;DHT22;38809;53.300;6.614;2023-02-15T16:23:50;8.50;99.90
52943;DHT22;38809;53.300;6.614;2023-02-15T16:29:01;8.40;99.90
52943;DHT22;38809;53.300;6.614;2023-02-15T16:31:27;8.30;99.90
52943;DHT22;38809;53.300;6.614;2023-02-15T16:33:54;8.20;99.90
52943;DHT22;38809;53.300;6.614;2023-02-15T16:38:59;7.70;99.90
52943;DHT22;38809;53.300;6.614;2023-02-15T16:41:31;7.50;99.90
52943;DHT22;38809;53.300;6.614;2023-02-15T16:43:59;7.50;99.90
52943;DHT22;38809;53.300;6.614;2023-02-15T16:46:31;7.60;99.90
52943;DHT22;38809;53.300;6.614;2023-02-15T16:49:05;7.50;99.90
52943;DHT22;38809;53.300;6.614;2023-02-15T16:51:34;7.50;99.90
52943;DHT22;38809;53.300;6.614;2023-02-15T16:54:16;7.40;99.90
52943;DHT22;38809;53.300;6.614;2023-02-15T16:56:45;7.40;99.90
52943;DHT22;38809;53.300;6.614;2023-02-15T16:59:39;7.40;99.90
52943;DHT22;38809;53.300;6.614;2023-02-15T17:02:25;7.70;99.90
52943;DHT22;38809;53.300;6.614;2023-02-15T17:07:42;7.30;99.90
52943;DHT22;38809;53.300;6.614;2023-02-15T17:10:32;7.30;99.90
52943;DHT22;38809;53.300;6.614;2023-02-15T17:13:13;7.30;99.90
52943;DHT22;38809;53.300;6.614;2023-02-15T17:15:42;7.20;99.90
52943;DHT22;38809;53.300;6.614;2023-02-15T17:18:16;7.10;99.90
52943;DHT22;38809;53.300;6.614;2023-02-15T17:20:44;7.10;99.90
52943;DHT22;38809;53.300;6.614;2023-02-15T17:23:32;7.10;99.90
52943;DHT22;38809;53.300;6.614;2023-02-15T17:26:01;7.00;99.90
52943;DHT22;38809;53.300;6.614;2023-02-15T17:28:30;7.10;99.90
52943;DHT22;38809;53.300;6.614;2023-02-15T17:30:58;7.00;99.90
52943;DHT22;38809;53.300;6.614;2023-02-15T17:33:26;7.00;99.90
52943;DHT22;38809;53.300;6.614;2023-02-15T17:36:09;7.00;99.90
52943;DHT22;38809;53.300;6.614;2023-02-15T17:38:38;7.00;99.90
52943;DHT22;38809;53.300;6.614;2023-02-15T17:41:04;7.00;99.90
52943;DHT22;38809;53.300;6.614;2023-02-15T17:43:30;7.10;99.90
52943;DHT22;38809;53.300;6.614;2023-02-15T17:45:56;6.80;99.90
52943;DHT22;38809;53.300;6.614;2023-02-15T17:48:30;6.90;99.90
52943;DHT22;38809;53.300;6.614;2023-02-15T17:50:57;6.90;99.90
52943;DHT22;38809;53.300;6.614;2023-02-15T17:53:24;6.80;99.90
52943;DHT22;38809;53.300;6.614;2023-02-15T17:55:50;6.80;99.90
52943;DHT22;38809;53.300;6.614;2023-02-15T17:58:18;6.80;99.90
52943;DHT22;38809;53.300;6.614;2023-02-15T18:00:51;6.90;99.90
52943;DHT22;38809;53.300;6.614;2023-02-15T18:03:47;7.10;99.90
52943;DHT22;38809;53.300;6.614;2023-02-15T18:06:34;7.10;99.90
52943;DHT22;38809;53.300;6.614;2023-02-15T18:09:20;7.20;99.90
52943;DHT22;38809;53.300;6.614;2023-02-15T18:12:23;7.20;99.90
52943;DHT22;38809;53.300;6.614;2023-02-15T18:14:50;7.30;99.90
52943;DHT22;38809;53.300;6.614;2023-02-15T18:17:16;7.20;99.90
52943;DHT22;38809;53.300;6.614;2023-02-15T18:19:43;7.30;99.90
52943;DHT22;38809;53.300;6.614;2023-02-15T18:22:15;7.30;99.90
52943;DHT22;38809;53.300;6.614;2023-02-15T18:24:42;7.30;99.90
52943;DHT22;38809;53.300;6.614;2023-02-15T18:27:11;7.70;99.90
52943;DHT22;38809;53.300;6.614;2023-02-15T18:29:37;7.30;99.90
52943;DHT22;38809;53.300;6.614;2023-02-15T18:32:07;7.30;99.90
52943;DHT22;38809;53.300;6.614;2023-02-15T18:34:38;7.30;99.90
52943;DHT22;38809;53.300;6.614;2023-02-15T18:37:09;7.40;99.90
52943;DHT22;38809;53.300;6.614;2023-02-15T18:39:40;7.30;99.90
52943;DHT22;38809;53.300;6.614;2023-02-15T18:42:27;7.40;99.90
52943;DHT22;38809;53.300;6.614;2023-02-15T18:44:55;7.30;99.90
52943;DHT22;38809;53.300;6.614;2023-02-15T18:47:22;7.30;99.90
52943;DHT22;38809;53.300;6.614;2023-02-15T18:49:48;7.40;99.90
52943;DHT22;38809;53.300;6.614;2023-02-15T18:52:16;7.30;99.90
52943;DHT22;38809;53.300;6.614;2023-02-15T18:54:43;7.40;99.90
52943;DHT22;38809;53.300;6.614;2023-02-15T18:57:11;7.40;99.90
52943;DHT22;38809;53.300;6.614;2023-02-15T18:59:38;7.40;99.90
52943;DHT22;38809;53.300;6.614;2023-02-15T19:02:13;7.50;99.90
52943;DHT22;38809;53.300;6.614;2023-02-15T19:04:39;7.50;99.90
52943;DHT22;38809;53.300;6.614;2023-02-15T19:07:07;7.50;99.90
52943;DHT22;38809;53.300;6.614;2023-02-15T19:09:36;6.30;99.90
52943;DHT22;38809;53.300;6.614;2023-02-15T19:12:02;7.60;99.90
52943;DHT22;38809;53.300;6.614;2023-02-15T19:14:31;7.40;99.90
52943;DHT22;38809;53.300;6.614;2023-02-15T19:16:58;7.50;99.90
52943;DHT22;38809;53.300;6.614;2023-02-15T19:19:24;7.40;99.90
52943;DHT22;38809;53.300;6.614;2023-02-15T19:21:50;7.30;99.90
52943;DHT22;38809;53.300;6.614;2023-02-15T19:24:17;7.30;99.90
52943;DHT22;38809;53.300;6.614;2023-02-15T19:26:44;7.30;99.90